Terminal Aerodrome Forecast
Issued by NWS Austin/San Antonio, TX

Home | Current Version | Previous Version | Text Only | Print | Product List | Glossary On
Versions: 1 2 3 4 5 6 7 8 9 10 11 12 13 14 15 16 17 18 19 20 21 22 23 24 25 26 27 28 29 30 31
000
FTUS44 KEWX 201300 AAB
TAFAUS
TAF AMD
KAUS 201326Z 2013/2118 13005KT 3SM BR OVC005
      TEMPO 2013/2015 1SM BR
     FM201500 16010KT 5SM BR OVC015
     FM201700 15010KT P6SM BKN025
     FM202100 16012KT P6SM SCT030 BKN050
     FM210400 17010KT P6SM BKN015
     FM210800 17007KT 4SM BR OVC007
     FM211500 20012KT P6SM OVC015=

USA.gov is the U.S. government's official web portal to all federal, state and local government web resources and services.